sensor_id;sensor_type;location;lat;lon;timestamp;pressure;altitude;pressure_sealevel;temperature;humidity
41706;BME280;27385;51.096;17.190;2023-05-22T00:02:02;100508.62;;;14.93;65.61
41706;BME280;27385;51.096;17.190;2023-05-22T00:04:33;100501.70;;;14.91;65.77
41706;BME280;27385;51.096;17.190;2023-05-22T00:07:04;100503.07;;;14.89;66.02
41706;BME280;27385;51.096;17.190;2023-05-22T00:09:36;100502.85;;;14.87;66.18
41706;BME280;27385;51.096;17.190;2023-05-22T00:12:08;100504.83;;;14.83;66.42
41706;BME280;27385;51.096;17.190;2023-05-22T00:14:38;100504.04;;;14.82;66.62
41706;BME280;27385;51.096;17.190;2023-05-22T00:17:09;100499.99;;;14.80;66.86
41706;BME280;27385;51.096;17.190;2023-05-22T00:19:43;100502.45;;;14.80;66.79
41706;BME280;27385;51.096;17.190;2023-05-22T00:22:14;100501.89;;;14.77;67.04
41706;BME280;27385;51.096;17.190;2023-05-22T00:24:45;100502.17;;;14.75;67.17
41706;BME280;27385;51.096;17.190;2023-05-22T00:27:16;100504.40;;;14.72;67.27
41706;BME280;27385;51.096;17.190;2023-05-22T00:29:47;100502.40;;;14.70;67.28
41706;BME280;27385;51.096;17.190;2023-05-22T00:32:18;100498.67;;;14.66;67.46
41706;BME280;27385;51.096;17.190;2023-05-22T00:34:49;100496.57;;;14.64;67.39
41706;BME280;27385;51.096;17.190;2023-05-22T00:37:20;100497.95;;;14.64;67.54
41706;BME280;27385;51.096;17.190;2023-05-22T00:39:50;100496.34;;;14.60;67.64
41706;BME280;27385;51.096;17.190;2023-05-22T00:42:21;100497.09;;;14.55;67.62
41706;BME280;27385;51.096;17.190;2023-05-22T00:44:52;100496.23;;;14.50;67.87
41706;BME280;27385;51.096;17.190;2023-05-22T00:47:23;100493.53;;;14.44;67.97
41706;BME280;27385;51.096;17.190;2023-05-22T00:49:55;100497.23;;;14.39;68.09
41706;BME280;27385;51.096;17.190;2023-05-22T00:52:26;100495.59;;;14.33;68.16
41706;BME280;27385;51.096;17.190;2023-05-22T00:54:57;100500.30;;;14.26;68.45
41706;BME280;27385;51.096;17.190;2023-05-22T00:57:35;100497.17;;;14.18;68.31
41706;BME280;27385;51.096;17.190;2023-05-22T01:00:10;100500.63;;;14.10;68.49
41706;BME280;27385;51.096;17.190;2023-05-22T01:02:48;100504.63;;;14.01;68.69
41706;BME280;27385;51.096;17.190;2023-05-22T01:05:19;100505.59;;;13.95;68.75
41706;BME280;27385;51.096;17.190;2023-05-22T01:07:50;100506.04;;;13.88;68.96
41706;BME280;27385;51.096;17.190;2023-05-22T01:10:21;100508.06;;;13.82;69.10
41706;BME280;27385;51.096;17.190;2023-05-22T01:12:59;100508.60;;;13.74;69.18
41706;BME280;27385;51.096;17.190;2023-05-22T01:15:51;100501.86;;;13.64;69.34
41706;BME280;27385;51.096;17.190;2023-05-22T01:18:30;100501.38;;;13.57;69.39
41706;BME280;27385;51.096;17.190;2023-05-22T01:21:07;100505.06;;;13.54;69.47
41706;BME280;27385;51.096;17.190;2023-05-22T01:24:02;100503.84;;;13.49;69.53
41706;BME280;27385;51.096;17.190;2023-05-22T01:27:02;100506.07;;;13.44;69.67
41706;BME280;27385;51.096;17.190;2023-05-22T01:29:47;100503.58;;;13.39;69.77
41706;BME280;27385;51.096;17.190;2023-05-22T01:32:25;100503.63;;;13.35;69.93
41706;BME280;27385;51.096;17.190;2023-05-22T01:35:02;100504.79;;;13.31;70.03
41706;BME280;27385;51.096;17.190;2023-05-22T01:37:39;100502.21;;;13.24;70.11
41706;BME280;27385;51.096;17.190;2023-05-22T01:40:13;100505.04;;;13.17;70.39
41706;BME280;27385;51.096;17.190;2023-05-22T01:42:44;100500.02;;;13.13;70.59
41706;BME280;27385;51.096;17.190;2023-05-22T01:45:15;100501.36;;;13.09;70.64
41706;BME280;27385;51.096;17.190;2023-05-22T01:47:47;100499.30;;;13.07;70.82
41706;BME280;27385;51.096;17.190;2023-05-22T01:50:18;100502.15;;;13.05;70.82
41706;BME280;27385;51.096;17.190;2023-05-22T01:52:54;100505.41;;;13.02;71.00
41706;BME280;27385;51.096;17.190;2023-05-22T01:55:36;100504.88;;;13.00;71.07
41706;BME280;27385;51.096;17.190;2023-05-22T01:58:18;100504.66;;;12.98;71.23
41706;BME280;27385;51.096;17.190;2023-05-22T02:00:56;100507.91;;;12.94;71.27
41706;BME280;27385;51.096;17.190;2023-05-22T02:03:30;100504.67;;;12.89;71.30
41706;BME280;27385;51.096;17.190;2023-05-22T02:06:05;100507.08;;;12.85;71.40
41706;BME280;27385;51.096;17.190;2023-05-22T02:08:38;100505.05;;;12.79;71.47
41706;BME280;27385;51.096;17.190;2023-05-22T02:11:11;100506.91;;;12.74;71.64
41706;BME280;27385;51.096;17.190;2023-05-22T02:13:43;100508.23;;;12.69;71.70
41706;BME280;27385;51.096;17.190;2023-05-22T02:16:14;100501.34;;;12.63;71.75
41706;BME280;27385;51.096;17.190;2023-05-22T02:18:45;100498.94;;;12.58;71.86
41706;BME280;27385;51.096;17.190;2023-05-22T02:21:17;100495.60;;;12.52;71.81
41706;BME280;27385;51.096;17.190;2023-05-22T02:23:48;100493.93;;;12.48;72.09
41706;BME280;27385;51.096;17.190;2023-05-22T02:26:18;100493.92;;;12.43;72.14
41706;BME280;27385;51.096;17.190;2023-05-22T02:28:49;100490.55;;;12.38;72.24
41706;BME280;27385;51.096;17.190;2023-05-22T02:31:20;100489.19;;;12.34;72.26
41706;BME280;27385;51.096;17.190;2023-05-22T02:33:51;100490.80;;;12.29;72.45
41706;BME280;27385;51.096;17.190;2023-05-22T02:36:22;100489.83;;;12.26;72.54
41706;BME280;27385;51.096;17.190;2023-05-22T02:38:55;100489.52;;;12.22;72.76
41706;BME280;27385;51.096;17.190;2023-05-22T02:41:27;100487.33;;;12.18;72.92
41706;BME280;27385;51.096;17.190;2023-05-22T02:43:58;100485.98;;;12.17;72.94
41706;BME280;27385;51.096;17.190;2023-05-22T02:46:28;100486.77;;;12.15;72.92
41706;BME280;27385;51.096;17.190;2023-05-22T02:48:59;100488.09;;;12.13;73.08
41706;BME280;27385;51.096;17.190;2023-05-22T02:51:30;100485.98;;;12.11;73.34
41706;BME280;27385;51.096;17.190;2023-05-22T02:54:01;100485.84;;;12.09;73.41
41706;BME280;27385;51.096;17.190;2023-05-22T02:56:31;100486.00;;;12.06;73.32
41706;BME280;27385;51.096;17.190;2023-05-22T02:59:02;100485.75;;;12.04;73.29
41706;BME280;27385;51.096;17.190;2023-05-22T03:01:33;100486.88;;;12.01;73.36
41706;BME280;27385;51.096;17.190;2023-05-22T03:04:05;100489.89;;;11.96;73.46
41706;BME280;27385;51.096;17.190;2023-05-22T03:06:35;100491.95;;;11.92;73.58
41706;BME280;27385;51.096;17.190;2023-05-22T03:09:06;100489.92;;;11.89;73.72
41706;BME280;27385;51.096;17.190;2023-05-22T03:11:37;100492.08;;;11.85;73.78
41706;BME280;27385;51.096;17.190;2023-05-22T03:14:08;100491.61;;;11.81;73.90
41706;BME280;27385;51.096;17.190;2023-05-22T03:16:39;100487.35;;;11.79;74.09
41706;BME280;27385;51.096;17.190;2023-05-22T03:19:11;100487.98;;;11.75;74.26
41706;BME280;27385;51.096;17.190;2023-05-22T03:21:42;100483.26;;;11.69;74.18
41706;BME280;27385;51.096;17.190;2023-05-22T03:24:13;100480.09;;;11.64;74.36
41706;BME280;27385;51.096;17.190;2023-05-22T03:26:44;100477.59;;;11.61;74.59
41706;BME280;27385;51.096;17.190;2023-05-22T03:29:15;100478.84;;;11.58;74.44
41706;BME280;27385;51.096;17.190;2023-05-22T03:31:45;100481.06;;;11.54;74.58
41706;BME280;27385;51.096;17.190;2023-05-22T03:34:16;100483.89;;;11.52;74.64
41706;BME280;27385;51.096;17.190;2023-05-22T03:36:47;100486.15;;;11.52;74.73
41706;BME280;27385;51.096;17.190;2023-05-22T03:39:18;100484.54;;;11.52;74.86
41706;BME280;27385;51.096;17.190;2023-05-22T03:41:49;100489.50;;;11.52;74.93
41706;BME280;27385;51.096;17.190;2023-05-22T03:44:19;100483.05;;;11.51;75.04
41706;BME280;27385;51.096;17.190;2023-05-22T03:46:50;100484.04;;;11.49;75.13
41706;BME280;27385;51.096;17.190;2023-05-22T03:49:21;100481.77;;;11.48;75.47
41706;BME280;27385;51.096;17.190;2023-05-22T03:51:52;100483.65;;;11.48;75.55
41706;BME280;27385;51.096;17.190;2023-05-22T03:54:22;100484.92;;;11.48;75.74
41706;BME280;27385;51.096;17.190;2023-05-22T03:56:53;100481.73;;;11.46;75.71
41706;BME280;27385;51.096;17.190;2023-05-22T03:59:24;100482.27;;;11.45;75.89
41706;BME280;27385;51.096;17.190;2023-05-22T04:01:54;100480.59;;;11.45;76.17
41706;BME280;27385;51.096;17.190;2023-05-22T04:04:26;100481.92;;;11.46;76.11
41706;BME280;27385;51.096;17.190;2023-05-22T04:06:57;100483.52;;;11.46;76.25
41706;BME280;27385;51.096;17.190;2023-05-22T04:09:32;100482.63;;;11.48;76.52
41706;BME280;27385;51.096;17.190;2023-05-22T04:12:04;100478.84;;;11.49;76.61
41706;BME280;27385;51.096;17.190;2023-05-22T04:14:35;100477.35;;;11.53;76.77
41706;BME280;27385;51.096;17.190;2023-05-22T04:17:06;100472.61;;;11.58;76.83
41706;BME280;27385;51.096;17.190;2023-05-22T04:19:37;100472.20;;;11.65;76.86
41706;BME280;27385;51.096;17.190;2023-05-22T04:22:07;100471.92;;;11.73;76.95
41706;BME280;27385;51.096;17.190;2023-05-22T04:24:38;100469.89;;;11.81;76.83
41706;BME280;27385;51.096;17.190;2023-05-22T04:27:09;100469.52;;;11.89;77.02
41706;BME280;27385;51.096;17.190;2023-05-22T04:29:41;100470.45;;;11.98;76.97
41706;BME280;27385;51.096;17.190;2023-05-22T04:32:13;100473.77;;;12.08;77.00
41706;BME280;27385;51.096;17.190;2023-05-22T04:34:49;100476.58;;;12.18;77.11
41706;BME280;27385;51.096;17.190;2023-05-22T04:37:19;100475.14;;;12.28;76.96
41706;BME280;27385;51.096;17.190;2023-05-22T04:39:50;100470.38;;;12.38;76.93
41706;BME280;27385;51.096;17.190;2023-05-22T04:42:21;100479.20;;;12.49;76.90
41706;BME280;27385;51.096;17.190;2023-05-22T04:44:53;100477.58;;;12.59;76.76
41706;BME280;27385;51.096;17.190;2023-05-22T04:47:26;100480.73;;;12.70;76.86
41706;BME280;27385;51.096;17.190;2023-05-22T04:49:59;100478.94;;;12.81;76.74
41706;BME280;27385;51.096;17.190;2023-05-22T04:52:30;100474.88;;;12.93;76.54
41706;BME280;27385;51.096;17.190;2023-05-22T04:55:01;100473.94;;;13.05;76.23
41706;BME280;27385;51.096;17.190;2023-05-22T04:57:32;100478.09;;;13.19;76.00
41706;BME280;27385;51.096;17.190;2023-05-22T05:00:03;100482.65;;;13.34;76.06
41706;BME280;27385;51.096;17.190;2023-05-22T05:02:37;100479.94;;;13.46;75.90
41706;BME280;27385;51.096;17.190;2023-05-22T05:05:08;100483.09;;;13.59;75.69
41706;BME280;27385;51.096;17.190;2023-05-22T05:07:39;100483.41;;;13.76;75.35
41706;BME280;27385;51.096;17.190;2023-05-22T05:10:11;100483.92;;;13.87;75.03
41706;BME280;27385;51.096;17.190;2023-05-22T05:12:42;100479.89;;;13.98;75.36
41706;BME280;27385;51.096;17.190;2023-05-22T05:15:13;100482.27;;;14.12;75.15
41706;BME280;27385;51.096;17.190;2023-05-22T05:17:44;100481.20;;;14.25;74.73
41706;BME280;27385;51.096;17.190;2023-05-22T05:20:15;100477.82;;;14.40;74.81
41706;BME280;27385;51.096;17.190;2023-05-22T05:22:46;100479.52;;;14.56;74.45
41706;BME280;27385;51.096;17.190;2023-05-22T05:25:17;100477.77;;;14.72;74.04
41706;BME280;27385;51.096;17.190;2023-05-22T05:27:48;100484.19;;;14.87;73.77
41706;BME280;27385;51.096;17.190;2023-05-22T05:30:19;100486.21;;;15.00;73.26
41706;BME280;27385;51.096;17.190;2023-05-22T05:32:50;100484.29;;;15.15;72.75
41706;BME280;27385;51.096;17.190;2023-05-22T05:35:21;100481.07;;;15.30;72.49
41706;BME280;27385;51.096;17.190;2023-05-22T05:37:51;100476.95;;;15.44;71.79
41706;BME280;27385;51.096;17.190;2023-05-22T05:40:22;100475.97;;;15.56;71.40
41706;BME280;27385;51.096;17.190;2023-05-22T05:42:53;100479.73;;;15.67;71.40
41706;BME280;27385;51.096;17.190;2023-05-22T05:45:24;100478.77;;;15.80;70.92
41706;BME280;27385;51.096;17.190;2023-05-22T05:47:55;100471.02;;;15.92;70.56
41706;BME280;27385;51.096;17.190;2023-05-22T05:50:26;100475.52;;;16.06;70.24
41706;BME280;27385;51.096;17.190;2023-05-22T05:52:56;100473.53;;;16.17;69.98
41706;BME280;27385;51.096;17.190;2023-05-22T05:55:27;100476.70;;;16.29;69.63
41706;BME280;27385;51.096;17.190;2023-05-22T05:57:58;100475.42;;;16.40;68.96
41706;BME280;27385;51.096;17.190;2023-05-22T06:00:29;100473.52;;;16.49;68.62
41706;BME280;27385;51.096;17.190;2023-05-22T06:02:59;100469.84;;;16.59;68.35
41706;BME280;27385;51.096;17.190;2023-05-22T06:05:30;100470.28;;;16.69;68.12
41706;BME280;27385;51.096;17.190;2023-05-22T06:08:01;100471.22;;;16.82;67.50
41706;BME280;27385;51.096;17.190;2023-05-22T06:10:32;100469.29;;;16.94;67.38
41706;BME280;27385;51.096;17.190;2023-05-22T06:13:03;100467.50;;;17.03;67.08
41706;BME280;27385;51.096;17.190;2023-05-22T06:15:34;100469.37;;;17.14;66.63
41706;BME280;27385;51.096;17.190;2023-05-22T06:18:05;100470.40;;;17.24;65.76
41706;BME280;27385;51.096;17.190;2023-05-22T06:20:36;100465.08;;;17.32;65.27
41706;BME280;27385;51.096;17.190;2023-05-22T06:23:07;100466.73;;;17.41;65.42
41706;BME280;27385;51.096;17.190;2023-05-22T06:25:39;100465.31;;;17.51;64.91
41706;BME280;27385;51.096;17.190;2023-05-22T06:28:10;100470.09;;;17.61;64.05
41706;BME280;27385;51.096;17.190;2023-05-22T06:30:40;100472.97;;;17.69;63.92
41706;BME280;27385;51.096;17.190;2023-05-22T06:33:11;100466.44;;;17.77;63.42
41706;BME280;27385;51.096;17.190;2023-05-22T06:35:42;100469.80;;;17.81;62.61
41706;BME280;27385;51.096;17.190;2023-05-22T06:38:13;100470.56;;;17.83;62.76
41706;BME280;27385;51.096;17.190;2023-05-22T06:40:44;100469.25;;;17.88;62.39
41706;BME280;27385;51.096;17.190;2023-05-22T06:43:15;100466.84;;;17.95;62.46
41706;BME280;27385;51.096;17.190;2023-05-22T06:45:46;100465.75;;;18.02;61.53
41706;BME280;27385;51.096;17.190;2023-05-22T06:48:16;100466.05;;;18.09;61.71
41706;BME280;27385;51.096;17.190;2023-05-22T06:50:48;100468.31;;;18.14;61.72
41706;BME280;27385;51.096;17.190;2023-05-22T06:53:19;100464.52;;;18.19;61.15
41706;BME280;27385;51.096;17.190;2023-05-22T06:55:50;100469.27;;;18.25;60.91
41706;BME280;27385;51.096;17.190;2023-05-22T06:58:20;100467.52;;;18.30;61.07
41706;BME280;27385;51.096;17.190;2023-05-22T07:00:51;100467.90;;;18.34;60.33
41706;BME280;27385;51.096;17.190;2023-05-22T07:06:15;100475.88;;;18.45;60.30
41706;BME280;27385;51.096;17.190;2023-05-22T07:08:46;100478.43;;;18.54;59.79
41706;BME280;27385;51.096;17.190;2023-05-22T07:11:17;100473.16;;;18.61;59.21
41706;BME280;27385;51.096;17.190;2023-05-22T07:13:47;100474.23;;;18.68;59.03
41706;BME280;27385;51.096;17.190;2023-05-22T07:16:20;100473.60;;;18.74;58.65
41706;BME280;27385;51.096;17.190;2023-05-22T07:18:51;100469.77;;;18.78;58.33
41706;BME280;27385;51.096;17.190;2023-05-22T07:21:22;100468.58;;;18.82;58.22
41706;BME280;27385;51.096;17.190;2023-05-22T07:23:53;100469.69;;;18.88;58.36
41706;BME280;27385;51.096;17.190;2023-05-22T07:26:24;100472.23;;;18.98;57.96
41706;BME280;27385;51.096;17.190;2023-05-22T07:28:56;100465.15;;;19.03;56.77
41706;BME280;27385;51.096;17.190;2023-05-22T07:31:26;100466.90;;;19.07;56.99
41706;BME280;27385;51.096;17.190;2023-05-22T07:34:01;100463.42;;;19.15;56.79
41706;BME280;27385;51.096;17.190;2023-05-22T07:36:32;100467.08;;;19.23;56.27
41706;BME280;27385;51.096;17.190;2023-05-22T07:39:03;100465.70;;;19.28;55.86
41706;BME280;27385;51.096;17.190;2023-05-22T07:41:35;100463.48;;;19.34;55.37
41706;BME280;27385;51.096;17.190;2023-05-22T07:44:08;100462.77;;;19.42;55.32
41706;BME280;27385;51.096;17.190;2023-05-22T07:46:39;100457.29;;;19.52;55.31
41706;BME280;27385;51.096;17.190;2023-05-22T07:49:10;100457.66;;;19.59;55.00
41706;BME280;27385;51.096;17.190;2023-05-22T07:51:40;100458.13;;;19.68;54.60
41706;BME280;27385;51.096;17.190;2023-05-22T07:54:12;100456.73;;;19.73;54.30
41706;BME280;27385;51.096;17.190;2023-05-22T07:56:44;100457.79;;;19.80;54.10
41706;BME280;27385;51.096;17.190;2023-05-22T07:59:16;100454.20;;;19.87;54.11
41706;BME280;27385;51.096;17.190;2023-05-22T08:01:49;100452.50;;;19.93;53.03
41706;BME280;27385;51.096;17.190;2023-05-22T08:04:20;100449.71;;;19.96;52.98
41706;BME280;27385;51.096;17.190;2023-05-22T08:06:51;100452.33;;;20.03;53.16
41706;BME280;27385;51.096;17.190;2023-05-22T08:09:21;100453.00;;;20.13;52.95
41706;BME280;27385;51.096;17.190;2023-05-22T08:11:52;100453.55;;;20.22;52.56
41706;BME280;27385;51.096;17.190;2023-05-22T08:14:23;100443.67;;;20.27;52.47
41706;BME280;27385;51.096;17.190;2023-05-22T08:16:54;100443.02;;;20.32;52.33
41706;BME280;27385;51.096;17.190;2023-05-22T08:19:27;100442.67;;;20.38;51.14
41706;BME280;27385;51.096;17.190;2023-05-22T08:21:57;100441.48;;;20.43;50.14
41706;BME280;27385;51.096;17.190;2023-05-22T08:24:28;100443.89;;;20.53;50.15
41706;BME280;27385;51.096;17.190;2023-05-22T08:26:59;100442.19;;;20.61;50.17
41706;BME280;27385;51.096;17.190;2023-05-22T08:29:30;100438.95;;;20.68;49.70
41706;BME280;27385;51.096;17.190;2023-05-22T08:32:01;100438.80;;;20.73;49.78
41706;BME280;27385;51.096;17.190;2023-05-22T08:34:32;100438.85;;;20.81;49.33
41706;BME280;27385;51.096;17.190;2023-05-22T08:37:04;100438.58;;;20.90;48.63
41706;BME280;27385;51.096;17.190;2023-05-22T08:39:35;100435.90;;;20.95;48.41
41706;BME280;27385;51.096;17.190;2023-05-22T08:42:06;100439.19;;;21.02;47.61
41706;BME280;27385;51.096;17.190;2023-05-22T08:44:37;100436.98;;;21.06;47.18
41706;BME280;27385;51.096;17.190;2023-05-22T08:47:09;100431.73;;;21.13;47.20
41706;BME280;27385;51.096;17.190;2023-05-22T08:49:42;100432.55;;;21.19;46.26
41706;BME280;27385;51.096;17.190;2023-05-22T08:52:20;100433.16;;;21.23;45.78
41706;BME280;27385;51.096;17.190;2023-05-22T08:54:54;100428.94;;;21.28;45.49
41706;BME280;27385;51.096;17.190;2023-05-22T08:57:27;100425.89;;;21.32;45.21
41706;BME280;27385;51.096;17.190;2023-05-22T09:00:01;100423.91;;;21.38;44.89
41706;BME280;27385;51.096;17.190;2023-05-22T09:02:32;100423.39;;;21.45;44.77
41706;BME280;27385;51.096;17.190;2023-05-22T09:05:03;100421.14;;;21.53;44.05
41706;BME280;27385;51.096;17.190;2023-05-22T09:07:36;100420.71;;;21.60;43.79
41706;BME280;27385;51.096;17.190;2023-05-22T09:10:09;100418.37;;;21.66;43.39
41706;BME280;27385;51.096;17.190;2023-05-22T09:13:01;100413.56;;;21.70;43.14
41706;BME280;27385;51.096;17.190;2023-05-22T09:15:32;100411.73;;;21.78;42.66
41706;BME280;27385;51.096;17.190;2023-05-22T09:18:04;100408.04;;;21.82;41.65
41706;BME280;27385;51.096;17.190;2023-05-22T09:20:40;100409.15;;;21.85;41.57
41706;BME280;27385;51.096;17.190;2023-05-22T09:23:15;100410.84;;;21.88;41.19
41706;BME280;27385;51.096;17.190;2023-05-22T09:25:50;100403.11;;;21.92;40.96
41706;BME280;27385;51.096;17.190;2023-05-22T09:28:24;100399.56;;;21.93;40.71
41706;BME280;27385;51.096;17.190;2023-05-22T09:30:56;100404.70;;;21.96;40.43
41706;BME280;27385;51.096;17.190;2023-05-22T09:33:28;100403.04;;;22.00;39.86
41706;BME280;27385;51.096;17.190;2023-05-22T09:35:59;100403.75;;;22.03;39.49
41706;BME280;27385;51.096;17.190;2023-05-22T09:38:31;100407.06;;;22.09;39.74
41706;BME280;27385;51.096;17.190;2023-05-22T09:41:02;100404.06;;;22.13;39.63
41706;BME280;27385;51.096;17.190;2023-05-22T09:43:33;100397.32;;;22.18;39.36
41706;BME280;27385;51.096;17.190;2023-05-22T09:46:04;100396.07;;;22.24;39.05
41706;BME280;27385;51.096;17.190;2023-05-22T09:48:35;100395.21;;;22.29;38.69
41706;BME280;27385;51.096;17.190;2023-05-22T09:51:09;100398.09;;;22.32;38.14
41706;BME280;27385;51.096;17.190;2023-05-22T09:53:42;100394.60;;;22.34;38.11
41706;BME280;27385;51.096;17.190;2023-05-22T09:56:16;100395.64;;;22.42;38.44
41706;BME280;27385;51.096;17.190;2023-05-22T09:58:47;100383.52;;;22.47;38.18
41706;BME280;27385;51.096;17.190;2023-05-22T10:01:22;100382.98;;;22.53;38.35
41706;BME280;27385;51.096;17.190;2023-05-22T10:03:56;100383.44;;;22.58;38.26
41706;BME280;27385;51.096;17.190;2023-05-22T10:06:28;100374.48;;;22.60;37.84
41706;BME280;27385;51.096;17.190;2023-05-22T10:09:04;100373.31;;;22.63;37.47
41706;BME280;27385;51.096;17.190;2023-05-22T10:11:38;100374.07;;;22.69;37.72
41706;BME280;27385;51.096;17.190;2023-05-22T10:14:09;100371.66;;;22.79;37.63
41706;BME280;27385;51.096;17.190;2023-05-22T10:16:41;100373.80;;;22.87;37.48
41706;BME280;27385;51.096;17.190;2023-05-22T10:19:13;100367.71;;;22.92;37.44
41706;BME280;27385;51.096;17.190;2023-05-22T10:21:46;100361.73;;;22.98;37.08
41706;BME280;27385;51.096;17.190;2023-05-22T10:24:19;100362.23;;;22.99;36.99
41706;BME280;27385;51.096;17.190;2023-05-22T10:26:50;100362.45;;;22.98;36.72
41706;BME280;27385;51.096;17.190;2023-05-22T10:29:37;100368.76;;;22.99;36.73
41706;BME280;27385;51.096;17.190;2023-05-22T10:32:17;100369.39;;;23.02;36.86
41706;BME280;27385;51.096;17.190;2023-05-22T10:34:53;100372.75;;;23.09;36.86
41706;BME280;27385;51.096;17.190;2023-05-22T10:37:41;100361.91;;;23.13;36.68
41706;BME280;27385;51.096;17.190;2023-05-22T10:40:20;100361.61;;;23.15;36.93
41706;BME280;27385;51.096;17.190;2023-05-22T10:43:02;100357.73;;;23.19;36.94
41706;BME280;27385;51.096;17.190;2023-05-22T10:45:34;100359.63;;;23.21;36.78
41706;BME280;27385;51.096;17.190;2023-05-22T10:48:09;100357.89;;;23.22;36.94
41706;BME280;27385;51.096;17.190;2023-05-22T10:50:52;100359.05;;;23.20;36.68
41706;BME280;27385;51.096;17.190;2023-05-22T10:53:28;100355.98;;;23.12;36.06
41706;BME280;27385;51.096;17.190;2023-05-22T10:56:09;100358.73;;;22.96;36.17
41706;BME280;27385;51.096;17.190;2023-05-22T10:58:43;100351.77;;;22.91;36.26
41706;BME280;27385;51.096;17.190;2023-05-22T11:01:15;100356.25;;;22.89;36.44
41706;BME280;27385;51.096;17.190;2023-05-22T11:03:53;100352.13;;;22.87;36.30
41706;BME280;27385;51.096;17.190;2023-05-22T11:06:42;100355.18;;;22.84;35.90
41706;BME280;27385;51.096;17.190;2023-05-22T11:09:29;100354.02;;;22.79;36.05
41706;BME280;27385;51.096;17.190;2023-05-22T11:12:22;100348.27;;;22.76;35.55
41706;BME280;27385;51.096;17.190;2023-05-22T11:14:56;100345.44;;;22.70;35.81
41706;BME280;27385;51.096;17.190;2023-05-22T11:17:29;100343.85;;;22.71;36.12
41706;BME280;27385;51.096;17.190;2023-05-22T11:20:13;100340.60;;;22.74;36.01
41706;BME280;27385;51.096;17.190;2023-05-22T11:22:56;100343.34;;;22.76;36.16
41706;BME280;27385;51.096;17.190;2023-05-22T11:25:31;100342.20;;;22.79;36.58
41706;BME280;27385;51.096;17.190;2023-05-22T11:28:05;100345.42;;;22.83;36.38
41706;BME280;27385;51.096;17.190;2023-05-22T11:30:40;100337.62;;;22.84;36.51
41706;BME280;27385;51.096;17.190;2023-05-22T11:33:13;100340.34;;;22.83;36.11
41706;BME280;27385;51.096;17.190;2023-05-22T11:35:47;100338.91;;;22.80;36.25
41706;BME280;27385;51.096;17.190;2023-05-22T11:38:20;100339.89;;;22.77;36.66
41706;BME280;27385;51.096;17.190;2023-05-22T11:40:53;100338.11;;;22.78;36.62
41706;BME280;27385;51.096;17.190;2023-05-22T11:43:30;100330.26;;;22.79;36.55
41706;BME280;27385;51.096;17.190;2023-05-22T11:46:06;100325.31;;;22.82;36.50
41706;BME280;27385;51.096;17.190;2023-05-22T11:48:51;100326.08;;;22.83;36.68
41706;BME280;27385;51.096;17.190;2023-05-22T11:51:22;100324.95;;;22.87;36.50
41706;BME280;27385;51.096;17.190;2023-05-22T11:53:53;100324.97;;;22.90;36.44
41706;BME280;27385;51.096;17.190;2023-05-22T11:56:24;100320.46;;;22.92;35.91
41706;BME280;27385;51.096;17.190;2023-05-22T11:58:55;100316.89;;;22.94;36.32
41706;BME280;27385;51.096;17.190;2023-05-22T12:01:27;100315.27;;;22.99;36.87
41706;BME280;27385;51.096;17.190;2023-05-22T12:03:58;100311.79;;;23.08;37.06
41706;BME280;27385;51.096;17.190;2023-05-22T12:06:28;100314.11;;;23.16;37.03
41706;BME280;27385;51.096;17.190;2023-05-22T12:09:04;100310.02;;;23.21;36.71
41706;BME280;27385;51.096;17.190;2023-05-22T12:11:37;100314.80;;;23.24;36.60
41706;BME280;27385;51.096;17.190;2023-05-22T12:14:11;100314.30;;;23.27;36.30
41706;BME280;27385;51.096;17.190;2023-05-22T12:16:42;100312.33;;;23.27;36.16
41706;BME280;27385;51.096;17.190;2023-05-22T12:19:13;100312.21;;;23.27;36.40
41706;BME280;27385;51.096;17.190;2023-05-22T12:21:44;100308.15;;;23.30;35.99
41706;BME280;27385;51.096;17.190;2023-05-22T12:24:15;100310.02;;;23.28;35.44
41706;BME280;27385;51.096;17.190;2023-05-22T12:26:51;100302.91;;;23.25;35.57
41706;BME280;27385;51.096;17.190;2023-05-22T12:29:23;100305.37;;;23.26;35.46
41706;BME280;27385;51.096;17.190;2023-05-22T12:31:59;100306.67;;;23.29;35.50
41706;BME280;27385;51.096;17.190;2023-05-22T12:34:34;100302.67;;;23.33;35.41
41706;BME280;27385;51.096;17.190;2023-05-22T12:37:05;100298.02;;;23.38;35.29
41706;BME280;27385;51.096;17.190;2023-05-22T12:39:55;100300.84;;;23.44;35.39
41706;BME280;27385;51.096;17.190;2023-05-22T12:42:26;100295.80;;;23.49;34.87
41706;BME280;27385;51.096;17.190;2023-05-22T12:44:58;100296.55;;;23.53;34.88
41706;BME280;27385;51.096;17.190;2023-05-22T12:47:29;100288.46;;;23.56;35.13
41706;BME280;27385;51.096;17.190;2023-05-22T12:49:59;100284.61;;;23.60;34.85
41706;BME280;27385;51.096;17.190;2023-05-22T12:52:30;100279.44;;;23.60;35.19
41706;BME280;27385;51.096;17.190;2023-05-22T12:55:01;100280.91;;;23.59;34.62
41706;BME280;27385;51.096;17.190;2023-05-22T12:57:32;100280.64;;;23.56;35.09
41706;BME280;27385;51.096;17.190;2023-05-22T13:00:04;100281.13;;;23.57;35.07
41706;BME280;27385;51.096;17.190;2023-05-22T13:02:35;100271.83;;;23.56;34.95
41706;BME280;27385;51.096;17.190;2023-05-22T13:05:07;100277.45;;;23.57;34.99
41706;BME280;27385;51.096;17.190;2023-05-22T13:07:38;100280.79;;;23.58;34.87
41706;BME280;27385;51.096;17.190;2023-05-22T13:10:10;100278.06;;;23.61;35.01
41706;BME280;27385;51.096;17.190;2023-05-22T13:12:42;100278.41;;;23.62;34.79